Saigon Express — VRBT7 — position and weather

sailwx.info

Track history (hours):
 
Tides and Currents Weather Stations Pressure Air Temp Water Temp Dewpoint Dewpoint Depression Visibility Wind Speed Wind Dir Waves Ship Positions

Saigon Express

Last reported at 2015-Jan-27 07:33 UTC. Time now 2015-Jan-27 08:26 UTC.
Position N 36°08' W 005°23'.

Length 260 m; draft 11.2 m.

Type: Ship (hazmat cat A). MMSI: 477106800.

Date/timePositionNaut miles runAvg speedWind from/ knotsBaromVisibWave heightAir tempDewpointWater temp
2015-Jan-27 07:33N 36°08' W 005°23'0 0.1
2015-Jan-27 06:33N 36°08' W 005°23'0 0.1
2015-Jan-27 05:04N 36°08' W 005°23'0 0.1
2015-Jan-27 04:33N 36°08' W 005°23'6 5.7
2015-Jan-27 03:33N 36°05' W 005°17'  
2015-Jan-24 14:28N 36°29' E 014°26'69416.9
2015-Jan-22 21:18N 32°56' E 027°50'3318.5
2015-Jan-22 19:32N 32°46' E 028°27'3718.5
2015-Jan-22 17:33N 32°34' E 029°09'2019.7
2015-Jan-22 16:33N 32°29' E 029°31'1818.4
2015-Jan-22 15:33N 32°23' E 029°52'1919.0
2015-Jan-22 14:33N 32°17' E 030°13'1918.9
2015-Jan-22 13:33N 32°11' E 030°34'6117.5
2015-Jan-22 10:05N 31°47' E 031°40'43 2.0
2015-Jan-21 12:21N 31°26' E 032°24'1113.8
2015-Jan-21 11:31N 31°15' E 032°21'  
Track history (hours):
 
Tides and Currents Weather Stations Pressure Air Temp Water Temp Dewpoint Dewpoint Depression Visibility Wind Speed Wind Dir Waves Ship Positions

Saigon Express

Last reported at 2015-Jan-27 07:33 UTC. Time now 2015-Jan-27 08:26 UTC.
Position N 36°08' W 005°23'.

Length 260 m; draft 11.2 m.

Type: Ship (hazmat cat A). MMSI: 477106800.

Date/timePositionNaut miles runAvg speedWind from/ knotsBaromVisibWave heightAir tempDewpointWater temp
2015-Jan-27 07:33N 36°08' W 005°23'0 0.1
2015-Jan-27 06:33N 36°08' W 005°23'0 0.1
2015-Jan-27 05:04N 36°08' W 005°23'0 0.1
2015-Jan-27 04:33N 36°08' W 005°23'6 5.7
2015-Jan-27 03:33N 36°05' W 005°17'  
2015-Jan-24 14:28N 36°29' E 014°26'69416.9
2015-Jan-22 21:18N 32°56' E 027°50'3318.5
2015-Jan-22 19:32N 32°46' E 028°27'3718.5
2015-Jan-22 17:33N 32°34' E 029°09'2019.7
2015-Jan-22 16:33N 32°29' E 029°31'1818.4
2015-Jan-22 15:33N 32°23' E 029°52'1919.0
2015-Jan-22 14:33N 32°17' E 030°13'1918.9
2015-Jan-22 13:33N 32°11' E 030°34'6117.5
2015-Jan-22 10:05N 31°47' E 031°40'43 2.0
2015-Jan-21 12:21N 31°26' E 032°24'1113.8
2015-Jan-21 11:31N 31°15' E 032°21'  

Dump ship's entire track history